Time;durP1;ratioP1;P1;durP2;ratioP2;P2;SDS_P1;SDS_P2;PMS_P1;PMS_P2;Temp;Humidity;BMP_temperature;BMP_pressure;BME280_temperature;BME280_humidity;BME280_pressure;Samples;Min_cycle;Max_cycle;Signal;HPM_P1;HPM_P2
2023/08/16 00:01:48;;;;;;;7.32;5.07;;;;;;;;;;5012332;28;20262;-85
2023/08/16 00:04:19;;;;;;;7.78;5.72;;;;;;;;;;5015361;28;20648;-84
2023/08/16 00:06:48;;;;;;;10.90;6.63;;;;;;;;;;5030832;28;20189;-83
2023/08/16 00:09:18;;;;;;;8.25;5.43;;;;;;;;;;5030745;28;20288;-87
2023/08/16 00:11:48;;;;;;;11.05;4.97;;;;;;;;;;5023723;28;20723;-83
2023/08/16 00:14:17;;;;;;;7.78;5.75;;;;;;;;;;5011603;28;20197;-84
2023/08/16 00:16:45;;;;;;;7.32;5.30;;;;;;;;;;5030612;28;20666;-84
2023/08/16 00:19:14;;;;;;;6.35;5.68;;;;;;;;;;5031278;28;20269;-84
2023/08/16 00:21:42;;;;;;;9.05;4.50;;;;;;;;;;5031010;28;20289;-85
2023/08/16 00:24:33;;;;;;;;;;;;;;;;;;;;;
2023/08/16 00:27:05;;;;;;;7.88;5.30;;;;;;;;;;5040834;28;20219;-84
2023/08/16 00:29:36;;;;;;;6.32;5.63;;;;;;;;;;5052121;28;20269;-88
2023/08/16 00:32:07;;;;;;;6.80;5.05;;;;;;;;;;5053653;28;20225;-84
2023/08/16 00:34:35;;;;;;;8.00;6.00;;;;;;;;;;5054890;28;20200;-84
2023/08/16 00:37:06;;;;;;;6.22;4.90;;;;;;;;;;5046436;28;20354;-84
2023/08/16 00:39:37;;;;;;;5.82;5.25;;;;;;;;;;5033362;28;20202;-84
2023/08/16 00:42:07;;;;;;;5.03;4.63;;;;;;;;;;5032998;28;20200;-85
2023/08/16 00:44:36;;;;;;;5.05;4.57;;;;;;;;;;5030954;28;20299;-84
2023/08/16 00:47:06;;;;;;;7.43;4.93;;;;;;;;;;5032262;28;20203;-85
2023/08/16 00:49:37;;;;;;;6.03;4.63;;;;;;;;;;5031565;28;20205;-85
2023/08/16 00:52:06;;;;;;;12.75;5.55;;;;;;;;;;5031287;28;20728;-85
2023/08/16 00:54:35;;;;;;;9.77;6.22;;;;;;;;;;5031671;28;20262;-84
2023/08/16 00:57:05;;;;;;;6.03;5.45;;;;;;;;;;5031444;28;20209;-84
2023/08/16 00:59:37;;;;;;;9.13;5.80;;;;;;;;;;5031186;28;20218;-84
2023/08/16 01:02:07;;;;;;;7.07;4.80;;;;;;;;;;5031588;28;20242;-85
2023/08/16 01:04:37;;;;;;;7.70;4.80;;;;;;;;;;5031146;28;20196;-85
2023/08/16 01:07:08;;;;;;;6.00;5.32;;;;;;;;;;5030911;28;20207;-85
2023/08/16 01:09:37;;;;;;;7.38;4.88;;;;;;;;;;5030666;28;20223;-84
2023/08/16 01:12:07;;;;;;;7.78;5.35;;;;;;;;;;5031202;28;20242;-83
2023/08/16 01:14:45;;;;;;;6.75;4.97;;;;;;;;;;5030584;28;20641;-84
2023/08/16 01:17:14;;;;;;;7.28;5.10;;;;;;;;;;5031003;28;20290;-85
2023/08/16 01:19:43;;;;;;;6.70;5.53;;;;;;;;;;5029743;28;20611;-84
2023/08/16 01:22:15;;;;;;;8.65;5.47;;;;;;;;;;5030618;28;20307;-84
2023/08/16 01:24:48;;;;;;;10.82;5.03;;;;;;;;;;5030928;28;20358;-84
2023/08/16 01:27:21;;;;;;;6.07;4.82;;;;;;;;;;5030898;28;20687;-84
2023/08/16 01:29:52;;;;;;;9.00;5.32;;;;;;;;;;5030892;28;20203;-84
2023/08/16 01:32:21;;;;;;;9.45;6.57;;;;;;;;;;5030104;28;20266;-85
2023/08/16 01:34:51;;;;;;;16.20;5.55;;;;;;;;;;5030592;28;20622;-85
2023/08/16 01:37:21;;;;;;;10.60;4.90;;;;;;;;;;5030674;28;20671;-85
2023/08/16 01:39:49;;;;;;;8.07;5.05;;;;;;;;;;5030699;28;20220;-85
2023/08/16 01:42:21;;;;;;;5.25;4.78;;;;;;;;;;5030164;28;20204;-85
2023/08/16 01:44:51;;;;;;;5.38;4.88;;;;;;;;;;5031131;28;20658;-85
2023/08/16 01:47:21;;;;;;;5.78;4.82;;;;;;;;;;5029969;28;20204;-84
2023/08/16 01:49:50;;;;;;;7.93;5.50;;;;;;;;;;5031665;28;20214;-84
2023/08/16 01:52:20;;;;;;;7.35;5.05;;;;;;;;;;5031007;28;20273;-85
2023/08/16 01:54:49;;;;;;;5.97;4.68;;;;;;;;;;5030254;28;20200;-84
2023/08/16 01:57:20;;;;;;;5.70;4.97;;;;;;;;;;5030334;28;20202;-88
2023/08/16 01:59:50;;;;;;;10.07;6.05;;;;;;;;;;5031228;28;20226;-85
2023/08/16 02:02:18;;;;;;;7.28;5.25;;;;;;;;;;5029964;28;20669;-84
2023/08/16 02:04:47;;;;;;;9.10;4.60;;;;;;;;;;5030596;28;20206;-85
2023/08/16 02:07:17;;;;;;;12.02;4.65;;;;;;;;;;5030635;28;20275;-84
2023/08/16 02:09:45;;;;;;;9.30;6.00;;;;;;;;;;5030410;28;20214;-84
2023/08/16 02:12:13;;;;;;;4.68;4.20;;;;;;;;;;5028889;28;20237;-84
2023/08/16 02:14:44;;;;;;;5.00;4.55;;;;;;;;;;5030315;28;20281;-84
2023/08/16 02:17:15;;;;;;;8.00;5.80;;;;;;;;;;5030001;28;20682;-86
2023/08/16 02:19:49;;;;;;;4.90;4.47;;;;;;;;;;5029734;28;20209;-84
2023/08/16 02:22:19;;;;;;;5.80;5.05;;;;;;;;;;5029901;28;20616;-85
2023/08/16 02:24:50;;;;;;;5.75;4.57;;;;;;;;;;5029761;28;20207;-87
2023/08/16 02:27:19;;;;;;;11.55;5.35;;;;;;;;;;5029374;28;20303;-84
2023/08/16 02:29:51;;;;;;;7.00;5.63;;;;;;;;;;5030340;28;20271;-84
2023/08/16 02:32:23;;;;;;;6.32;4.90;;;;;;;;;;5029775;28;20290;-85
2023/08/16 02:34:52;;;;;;;6.57;4.85;;;;;;;;;;5029480;28;20253;-85
2023/08/16 02:37:21;;;;;;;8.45;5.45;;;;;;;;;;5029805;28;20230;-85
2023/08/16 02:39:50;;;;;;;14.68;4.65;;;;;;;;;;5030259;28;20307;-85
2023/08/16 02:42:20;;;;;;;9.10;5.03;;;;;;;;;;5029841;28;20233;-85
2023/08/16 02:44:51;;;;;;;5.40;4.75;;;;;;;;;;5030512;28;20198;-85
2023/08/16 02:47:19;;;;;;;6.32;5.05;;;;;;;;;;5029530;28;20199;-83
2023/08/16 02:49:49;;;;;;;7.60;5.18;;;;;;;;;;5029502;28;20206;-85
2023/08/16 02:52:19;;;;;;;6.47;5.03;;;;;;;;;;5029250;28;20234;-85
2023/08/16 02:54:48;;;;;;;9.10;5.10;;;;;;;;;;5029817;28;20202;-85
2023/08/16 02:57:18;;;;;;;4.88;3.95;;;;;;;;;;5029188;28;20202;-84
2023/08/16 02:59:48;;;;;;;5.65;4.90;;;;;;;;;;5030021;28;20228;-85
2023/08/16 03:02:18;;;;;;;5.35;4.80;;;;;;;;;;5029565;28;20379;-84
2023/08/16 03:04:51;;;;;;;6.00;4.60;;;;;;;;;;5033047;28;20206;-84
2023/08/16 03:07:20;;;;;;;6.70;5.20;;;;;;;;;;5030780;28;20668;-85
2023/08/16 03:09:49;;;;;;;10.00;5.13;;;;;;;;;;5033150;28;20246;-83
2023/08/16 03:12:17;;;;;;;7.95;5.22;;;;;;;;;;5037329;28;20240;-83
2023/08/16 03:14:46;;;;;;;5.40;4.93;;;;;;;;;;5038676;28;20209;-84
2023/08/16 03:17:17;;;;;;;7.15;5.13;;;;;;;;;;5034210;28;20206;-84
2023/08/16 03:19:49;;;;;;;6.53;5.00;;;;;;;;;;5034770;28;20204;-84
2023/08/16 03:22:18;;;;;;;6.53;5.20;;;;;;;;;;5033535;28;20243;-87
2023/08/16 03:24:47;;;;;;;5.63;4.85;;;;;;;;;;5033379;28;20207;-85
2023/08/16 03:27:16;;;;;;;13.57;5.43;;;;;;;;;;5033738;28;20228;-84
2023/08/16 03:29:46;;;;;;;8.13;4.63;;;;;;;;;;5034958;28;20204;-85
2023/08/16 03:32:15;;;;;;;5.80;4.38;;;;;;;;;;5032922;28;20271;-84
2023/08/16 03:34:45;;;;;;;6.35;4.88;;;;;;;;;;5032919;28;20210;-84
2023/08/16 03:37:17;;;;;;;10.05;5.05;;;;;;;;;;5033307;28;20191;-84
2023/08/16 03:39:47;;;;;;;12.30;5.75;;;;;;;;;;5033373;28;20469;-84
2023/08/16 03:42:17;;;;;;;12.70;5.93;;;;;;;;;;5036651;28;20243;-84
2023/08/16 03:44:47;;;;;;;6.75;5.20;;;;;;;;;;5036065;28;20256;-84
2023/08/16 03:47:17;;;;;;;9.02;5.18;;;;;;;;;;5035220;28;20214;-83
2023/08/16 03:49:46;;;;;;;5.72;5.22;;;;;;;;;;5033144;28;20199;-83
2023/08/16 03:52:16;;;;;;;6.57;4.82;;;;;;;;;;5033125;28;20246;-85
2023/08/16 03:54:44;;;;;;;6.70;5.80;;;;;;;;;;5033345;28;20207;-84
2023/08/16 03:57:15;;;;;;;7.65;5.07;;;;;;;;;;5033831;28;20257;-84
2023/08/16 03:59:44;;;;;;;10.55;5.35;;;;;;;;;;5053455;28;20211;-84
2023/08/16 04:02:13;;;;;;;8.65;6.07;;;;;;;;;;5053107;28;20250;-85
2023/08/16 04:04:45;;;;;;;9.75;5.97;;;;;;;;;;5055337;28;20291;-84
2023/08/16 04:10:02;;;;;;;6.95;5.63;;;;;;;;;;5033537;28;20266;-84
2023/08/16 04:12:31;;;;;;;6.57;5.30;;;;;;;;;;5032153;28;20321;-84
2023/08/16 04:15:00;;;;;;;10.23;6.50;;;;;;;;;;5031558;28;20228;-85
2023/08/16 04:17:28;;;;;;;9.43;5.65;;;;;;;;;;5031726;28;20208;-86
2023/08/16 04:19:58;;;;;;;9.10;7.35;;;;;;;;;;5031370;28;20293;-84
2023/08/16 04:22:31;;;;;;;7.88;6.40;;;;;;;;;;5030789;28;20230;-85
2023/08/16 04:25:01;;;;;;;9.95;6.72;;;;;;;;;;5031075;28;20640;-84
2023/08/16 04:27:30;;;;;;;9.50;6.60;;;;;;;;;;5032259;28;20206;-83
2023/08/16 04:29:59;;;;;;;13.52;6.35;;;;;;;;;;5031876;28;20212;-85
2023/08/16 04:32:29;;;;;;;10.00;6.60;;;;;;;;;;5031899;28;20330;-85
2023/08/16 04:34:59;;;;;;;9.77;5.57;;;;;;;;;;5031553;28;20269;-85
2023/08/16 04:37:35;;;;;;;11.32;6.03;;;;;;;;;;5032015;28;20211;-85
2023/08/16 04:40:08;;;;;;;9.43;5.47;;;;;;;;;;5031704;28;20206;-84
2023/08/16 04:42:38;;;;;;;6.35;5.63;;;;;;;;;;5030951;28;20289;-84
2023/08/16 04:45:09;;;;;;;7.60;5.43;;;;;;;;;;5031710;28;20297;-84
2023/08/16 04:47:38;;;;;;;11.98;6.30;;;;;;;;;;5031012;28;20289;-86
2023/08/16 04:50:11;;;;;;;9.07;5.85;;;;;;;;;;5031237;28;20713;-86
2023/08/16 04:52:43;;;;;;;8.98;6.30;;;;;;;;;;5032050;28;20295;-85
2023/08/16 04:55:11;;;;;;;6.75;5.50;;;;;;;;;;5031489;28;20192;-85
2023/08/16 04:57:44;;;;;;;7.72;6.30;;;;;;;;;;5031111;28;20232;-86
2023/08/16 05:00:15;;;;;;;8.25;5.72;;;;;;;;;;5031207;28;20688;-85
2023/08/16 05:02:44;;;;;;;5.38;4.97;;;;;;;;;;5031147;28;20243;-85
2023/08/16 05:05:12;;;;;;;6.07;5.53;;;;;;;;;;5031529;28;20558;-85
2023/08/16 05:07:43;;;;;;;10.52;6.18;;;;;;;;;;5031136;28;20200;-85
2023/08/16 05:10:26;;;;;;;7.72;5.60;;;;;;;;;;5031090;28;20258;-85
2023/08/16 05:12:54;;;;;;;7.32;6.05;;;;;;;;;;5038611;28;20220;-85
2023/08/16 05:15:23;;;;;;;8.95;6.70;;;;;;;;;;5032361;28;20192;-85
2023/08/16 05:17:52;;;;;;;6.00;5.57;;;;;;;;;;5031137;28;20215;-86
2023/08/16 05:20:21;;;;;;;5.85;5.35;;;;;;;;;;5031763;28;20204;-85
2023/08/16 05:22:52;;;;;;;13.23;6.15;;;;;;;;;;5030636;28;20788;-86
2023/08/16 05:25:25;;;;;;;5.15;4.75;;;;;;;;;;5012728;28;20189;-86
2023/08/16 05:27:58;;;;;;;4.70;4.47;;;;;;;;;;5030661;28;20293;-86
2023/08/16 05:30:26;;;;;;;4.93;3.95;;;;;;;;;;5030485;28;20648;-86
2023/08/16 05:32:56;;;;;;;4.65;4.45;;;;;;;;;;5029350;28;20669;-85
2023/08/16 05:35:27;;;;;;;4.90;3.92;;;;;;;;;;5031114;28;20235;-86
2023/08/16 05:37:58;;;;;;;4.65;4.35;;;;;;;;;;5030942;28;20204;-85
2023/08/16 05:40:27;;;;;;;4.00;3.72;;;;;;;;;;5034548;28;20188;-86
2023/08/16 05:42:56;;;;;;;4.82;4.43;;;;;;;;;;5031697;28;20246;-85
2023/08/16 05:45:28;;;;;;;4.63;4.25;;;;;;;;;;5030566;28;20595;-85
2023/08/16 05:47:56;;;;;;;4.60;4.20;;;;;;;;;;5027622;28;20743;-85
2023/08/16 05:50:26;;;;;;;4.68;4.30;;;;;;;;;;5031251;28;20335;-85
2023/08/16 05:52:55;;;;;;;4.38;4.13;;;;;;;;;;5031005;28;20252;-86
2023/08/16 05:55:26;;;;;;;10.93;4.43;;;;;;;;;;5030309;28;20228;-87
2023/08/16 05:57:55;;;;;;;4.68;4.38;;;;;;;;;;5030078;28;20220;-85
2023/08/16 06:00:29;;;;;;;4.10;3.55;;;;;;;;;;5029606;28;20588;-85
2023/08/16 06:02:59;;;;;;;4.25;4.03;;;;;;;;;;5030075;28;20230;-85
2023/08/16 06:05:35;;;;;;;6.13;5.53;;;;;;;;;;5030731;28;20200;-85
2023/08/16 06:08:08;;;;;;;4.40;4.03;;;;;;;;;;5028063;28;20207;-86
2023/08/16 06:10:41;;;;;;;4.65;4.28;;;;;;;;;;5029133;28;20232;-85
2023/08/16 06:13:10;;;;;;;4.57;4.30;;;;;;;;;;5027087;28;20216;-86
2023/08/16 06:15:40;;;;;;;4.30;4.00;;;;;;;;;;5028596;28;20217;-86
2023/08/16 06:18:09;;;;;;;3.97;3.60;;;;;;;;;;5027642;28;20208;-89
2023/08/16 06:20:38;;;;;;;3.83;3.63;;;;;;;;;;5030970;28;20196;-85
2023/08/16 06:23:07;;;;;;;3.83;3.58;;;;;;;;;;5029159;28;20443;-85
2023/08/16 06:25:36;;;;;;;4.70;4.30;;;;;;;;;;5026835;28;20223;-86
2023/08/16 06:28:19;;;;;;;5.65;4.25;;;;;;;;;;5028409;28;20331;-86
2023/08/16 06:30:50;;;;;;;4.28;3.90;;;;;;;;;;5010105;28;20694;-85
2023/08/16 06:33:23;;;;;;;4.65;4.35;;;;;;;;;;5026733;28;20746;-85
2023/08/16 06:35:54;;;;;;;4.47;4.10;;;;;;;;;;5028846;28;20231;-86
2023/08/16 06:38:25;;;;;;;4.18;3.90;;;;;;;;;;5027285;28;20235;-87
2023/08/16 06:40:56;;;;;;;4.20;3.97;;;;;;;;;;5031356;28;20212;-86
2023/08/16 06:43:25;;;;;;;4.75;4.35;;;;;;;;;;5019796;28;20207;-87
2023/08/16 06:45:53;;;;;;;4.40;4.20;;;;;;;;;;5039548;28;20242;-84
2023/08/16 06:48:23;;;;;;;4.47;4.20;;;;;;;;;;5043169;28;20208;-84
2023/08/16 06:50:52;;;;;;;7.35;4.72;;;;;;;;;;5024037;28;20294;-85
2023/08/16 06:53:20;;;;;;;4.40;4.10;;;;;;;;;;5035621;28;20227;-86
2023/08/16 06:55:50;;;;;;;8.43;5.30;;;;;;;;;;5036038;28;20318;-84
2023/08/16 06:58:21;;;;;;;5.43;5.00;;;;;;;;;;5037388;28;20191;-86
2023/08/16 07:00:51;;;;;;;6.00;4.70;;;;;;;;;;5034153;28;20640;-85
2023/08/16 07:03:22;;;;;;;4.07;3.88;;;;;;;;;;5033029;28;20243;-86
2023/08/16 07:05:51;;;;;;;4.60;4.32;;;;;;;;;;5033133;28;20608;-86
2023/08/16 07:08:21;;;;;;;4.55;4.30;;;;;;;;;;5033585;28;20215;-85
2023/08/16 07:10:51;;;;;;;4.82;4.50;;;;;;;;;;5032760;28;20234;-85
2023/08/16 07:13:24;;;;;;;4.20;3.90;;;;;;;;;;5033510;28;20522;-85
2023/08/16 07:15:53;;;;;;;4.53;4.13;;;;;;;;;;5033599;28;20202;-85
2023/08/16 07:18:23;;;;;;;5.60;5.20;;;;;;;;;;5033054;28;20672;-85
2023/08/16 07:20:52;;;;;;;5.63;4.22;;;;;;;;;;5033235;28;20583;-85
2023/08/16 07:23:21;;;;;;;4.55;4.25;;;;;;;;;;5031867;28;20210;-85
2023/08/16 07:25:56;;;;;;;4.68;4.30;;;;;;;;;;5143380;23;20191;-87
2023/08/16 07:28:25;;;;;;;5.43;5.00;;;;;;;;;;4960209;29;20237;-86
2023/08/16 07:31:06;;;;;;;6.18;5.57;;;;;;;;;;4953968;29;20198;-87
2023/08/16 07:33:39;;;;;;;4.35;3.95;;;;;;;;;;4955519;29;20321;-86
2023/08/16 07:36:07;;;;;;;4.47;4.18;;;;;;;;;;4954663;29;20686;-87
2023/08/16 07:38:34;;;;;;;4.93;4.05;;;;;;;;;;4954492;29;20213;-87
2023/08/16 07:41:04;;;;;;;10.13;4.47;;;;;;;;;;4951717;28;20241;-86
2023/08/16 07:43:33;;;;;;;4.20;4.00;;;;;;;;;;4953490;28;20244;-87
2023/08/16 07:46:04;;;;;;;5.07;4.53;;;;;;;;;;4952918;28;20778;-87
2023/08/16 07:48:33;;;;;;;4.28;4.07;;;;;;;;;;4947949;28;20262;-88
2023/08/16 07:50:59;;;;;;;4.68;4.22;;;;;;;;;;4953395;28;20238;-86
2023/08/16 07:53:28;;;;;;;4.72;4.32;;;;;;;;;;4950625;28;20234;-86
2023/08/16 07:55:57;;;;;;;4.70;4.15;;;;;;;;;;4951749;28;20718;-85
2023/08/16 07:58:41;;;;;;;4.32;3.92;;;;;;;;;;4936023;29;20617;-87
2023/08/16 08:01:12;;;;;;;4.57;4.28;;;;;;;;;;4939067;28;20213;-87
2023/08/16 08:03:41;;;;;;;4.70;4.40;;;;;;;;;;4936621;29;20195;-85
2023/08/16 08:06:14;;;;;;;4.03;3.83;;;;;;;;;;4934801;29;20250;-85
2023/08/16 08:08:44;;;;;;;5.28;4.97;;;;;;;;;;4937038;29;20278;-83
2023/08/16 08:11:15;;;;;;;4.22;4.03;;;;;;;;;;4934806;29;20206;-87
2023/08/16 08:13:42;;;;;;;6.05;4.80;;;;;;;;;;4934532;29;20762;-86
2023/08/16 08:16:15;;;;;;;4.78;3.65;;;;;;;;;;4935173;29;20626;-86
2023/08/16 08:19:00;;;;;;;4.45;4.07;;;;;;;;;;4935672;29;20234;-87
2023/08/16 08:21:34;;;;;;;4.50;4.30;;;;;;;;;;4934633;29;20258;-88
2023/08/16 08:24:05;;;;;;;5.93;4.80;;;;;;;;;;4935714;29;20278;-86
2023/08/16 08:26:32;;;;;;;4.78;4.38;;;;;;;;;;5062016;23;20237;-88
2023/08/16 08:29:01;;;;;;;4.20;3.90;;;;;;;;;;4991954;28;20285;-86
2023/08/16 08:31:33;;;;;;;3.67;3.47;;;;;;;;;;4992274;28;20197;-86
2023/08/16 08:34:05;;;;;;;6.43;3.88;;;;;;;;;;4982408;28;20409;-86
2023/08/16 08:36:34;;;;;;;4.05;3.85;;;;;;;;;;4995366;28;20232;-87
2023/08/16 08:39:04;;;;;;;5.13;4.43;;;;;;;;;;4992784;28;20248;-85
2023/08/16 08:41:34;;;;;;;4.10;3.75;;;;;;;;;;4990585;28;20391;-84
2023/08/16 08:44:05;;;;;;;5.25;3.90;;;;;;;;;;4987636;28;20244;-86
2023/08/16 08:46:36;;;;;;;4.22;3.92;;;;;;;;;;4994410;28;20229;-85
2023/08/16 08:49:05;;;;;;;6.70;4.70;;;;;;;;;;4988431;28;20312;-85
2023/08/16 08:51:37;;;;;;;4.35;3.97;;;;;;;;;;4990175;28;20279;-85
2023/08/16 08:54:06;;;;;;;4.47;4.20;;;;;;;;;;4988549;28;20233;-85
2023/08/16 08:56:36;;;;;;;4.43;4.10;;;;;;;;;;4991872;28;20736;-85
2023/08/16 08:59:03;;;;;;;4.07;3.70;;;;;;;;;;4991170;28;20284;-87
2023/08/16 09:01:32;;;;;;;4.38;3.95;;;;;;;;;;4978733;28;20229;-85
2023/08/16 09:04:03;;;;;;;5.20;3.75;;;;;;;;;;4991448;28;20248;-87
2023/08/16 09:06:32;;;;;;;3.80;3.60;;;;;;;;;;4986801;28;20306;-86
2023/08/16 09:09:01;;;;;;;4.75;4.45;;;;;;;;;;4997363;28;20228;-86
2023/08/16 09:11:30;;;;;;;4.30;3.90;;;;;;;;;;5007517;28;20212;-86
2023/08/16 09:14:05;;;;;;;5.10;4.55;;;;;;;;;;4981301;28;20240;-87
2023/08/16 09:16:37;;;;;;;4.75;4.40;;;;;;;;;;4990704;28;20224;-86
2023/08/16 09:19:12;;;;;;;4.40;4.10;;;;;;;;;;4976288;28;20234;-86
2023/08/16 09:25:04;;;;;;;4.05;3.75;;;;;;;;;;4898468;29;20330;-87
2023/08/16 09:27:34;;;;;;;4.65;4.25;;;;;;;;;;4959090;28;20243;-87
2023/08/16 09:30:03;;;;;;;5.45;4.07;;;;;;;;;;4971225;28;20298;-86
2023/08/16 09:32:53;;;;;;;4.57;4.28;;;;;;;;;;4970000;28;20726;-87
2023/08/16 09:38:34;;;;;;;4.95;4.55;;;;;;;;;;4969743;28;20233;-87
2023/08/16 09:41:03;;;;;;;4.10;3.90;;;;;;;;;;4968949;28;20226;-85
2023/08/16 09:43:32;;;;;;;4.70;4.30;;;;;;;;;;4973502;28;20902;-86
2023/08/16 09:46:03;;;;;;;7.97;4.43;;;;;;;;;;4983321;28;21943;-86
2023/08/16 09:48:32;;;;;;;4.57;4.28;;;;;;;;;;4994594;28;20225;-86
2023/08/16 09:51:03;;;;;;;5.03;4.53;;;;;;;;;;4987684;28;20768;-86
2023/08/16 09:53:46;;;;;;;5.00;4.60;;;;;;;;;;4989081;28;20244;-86
2023/08/16 09:56:17;;;;;;;3.95;3.72;;;;;;;;;;4984325;28;20703;-86
2023/08/16 09:58:46;;;;;;;4.05;3.75;;;;;;;;;;4989155;28;20221;-86
2023/08/16 10:01:13;;;;;;;4.20;4.00;;;;;;;;;;4988048;28;20256;-86
2023/08/16 10:03:41;;;;;;;6.47;4.40;;;;;;;;;;4992952;28;20236;-87
2023/08/16 10:06:14;;;;;;;4.72;4.43;;;;;;;;;;4990113;28;20225;-86
2023/08/16 10:08:41;;;;;;;3.90;3.70;;;;;;;;;;4989762;28;20229;-85
2023/08/16 10:11:11;;;;;;;3.85;3.58;;;;;;;;;;4991850;28;20337;-85
2023/08/16 10:13:41;;;;;;;3.80;3.53;;;;;;;;;;4988143;28;20244;-85
2023/08/16 10:16:13;;;;;;;7.03;4.00;;;;;;;;;;4992054;28;20261;-86
2023/08/16 10:18:40;;;;;;;4.43;4.20;;;;;;;;;;4987187;28;20255;-85
2023/08/16 10:21:18;;;;;;;4.07;3.78;;;;;;;;;;4990241;28;20256;-86
2023/08/16 10:23:48;;;;;;;4.00;3.72;;;;;;;;;;4989720;28;20690;-85
2023/08/16 10:26:16;;;;;;;3.63;3.42;;;;;;;;;;4991070;28;20820;-85
2023/08/16 10:28:50;;;;;;;3.47;3.20;;;;;;;;;;4984812;28;20230;-86
2023/08/16 10:31:19;;;;;;;5.00;3.42;;;;;;;;;;4988992;28;20229;-87
2023/08/16 10:33:48;;;;;;;5.78;3.60;;;;;;;;;;4988136;28;20233;-86
2023/08/16 10:36:22;;;;;;;3.97;3.67;;;;;;;;;;4988810;28;20240;-85
2023/08/16 10:38:56;;;;;;;3.70;3.50;;;;;;;;;;4983592;28;20256;-87
2023/08/16 10:41:23;;;;;;;3.78;3.58;;;;;;;;;;4988392;28;20295;-85
2023/08/16 10:43:54;;;;;;;5.85;3.42;;;;;;;;;;4984547;28;20233;-86
2023/08/16 10:46:28;;;;;;;4.20;3.38;;;;;;;;;;4987871;28;20221;-86
2023/08/16 10:48:59;;;;;;;3.58;3.33;;;;;;;;;;4983882;28;20237;-86
2023/08/16 10:51:27;;;;;;;3.88;3.58;;;;;;;;;;4987265;28;20693;-87
2023/08/16 10:53:55;;;;;;;4.43;4.13;;;;;;;;;;4984997;28;20299;-86
2023/08/16 10:56:23;;;;;;;4.15;3.70;;;;;;;;;;4987622;28;20237;-87
2023/08/16 10:58:54;;;;;;;3.00;2.90;;;;;;;;;;4983916;28;20321;-86
2023/08/16 11:01:35;;;;;;;6.20;3.50;;;;;;;;;;4987532;28;20244;-86
2023/08/16 11:04:07;;;;;;;3.83;3.53;;;;;;;;;;4978637;28;20249;-86
2023/08/16 11:06:39;;;;;;;3.38;3.17;;;;;;;;;;4988184;28;20226;-85
2023/08/16 11:09:08;;;;;;;3.75;3.55;;;;;;;;;;4986772;28;20316;-85
2023/08/16 11:11:43;;;;;;;4.28;3.97;;;;;;;;;;4987697;28;20651;-85
2023/08/16 11:14:37;;;;;;;4.45;3.75;;;;;;;;;;4987147;28;20236;-87
2023/08/16 11:17:10;;;;;;;4.13;3.78;;;;;;;;;;4992143;28;20289;-84
2023/08/16 11:19:40;;;;;;;3.65;3.45;;;;;;;;;;4989971;28;20256;-85
2023/08/16 11:22:26;;;;;;;4.00;3.65;;;;;;;;;;4992373;28;20225;-85
2023/08/16 11:25:00;;;;;;;4.15;3.85;;;;;;;;;;4983887;28;20217;-88
2023/08/16 11:27:30;;;;;;;4.13;3.75;;;;;;;;;;4986660;28;20704;-85
2023/08/16 11:29:59;;;;;;;4.43;3.85;;;;;;;;;;4985634;28;20241;-86
2023/08/16 11:32:40;;;;;;;3.90;3.60;;;;;;;;;;4991835;28;20249;-87
2023/08/16 11:35:09;;;;;;;4.47;3.72;;;;;;;;;;4980255;28;20291;-86
2023/08/16 11:37:40;;;;;;;4.28;3.97;;;;;;;;;;4991333;28;20233;-87
2023/08/16 11:40:22;;;;;;;4.82;4.43;;;;;;;;;;4990672;28;20288;-86
2023/08/16 11:42:57;;;;;;;4.07;3.78;;;;;;;;;;4991161;28;20229;-86
2023/08/16 11:45:48;;;;;;;3.92;3.63;;;;;;;;;;4987931;28;20737;-86
2023/08/16 11:48:25;;;;;;;5.97;3.95;;;;;;;;;;5003475;28;20347;-87
2023/08/16 11:51:08;;;;;;;4.03;3.83;;;;;;;;;;5000438;28;20279;-87
2023/08/16 11:53:39;;;;;;;4.30;3.90;;;;;;;;;;5010998;28;20235;-87
2023/08/16 11:59:53;;;;;;;4.10;3.90;;;;;;;;;;5022211;28;20628;-86
2023/08/16 12:02:22;;;;;;;4.35;4.05;;;;;;;;;;5018221;28;20247;-87
2023/08/16 12:04:58;;;;;;;4.28;3.92;;;;;;;;;;5009608;28;20303;-86
2023/08/16 12:07:29;;;;;;;4.22;4.00;;;;;;;;;;5008307;28;20244;-85
2023/08/16 12:09:57;;;;;;;4.30;4.07;;;;;;;;;;5010332;28;20228;-87
2023/08/16 12:12:25;;;;;;;5.00;4.63;;;;;;;;;;5007376;28;20308;-87
2023/08/16 12:14:54;;;;;;;4.32;3.92;;;;;;;;;;5009828;28;20241;-85
2023/08/16 12:17:22;;;;;;;13.68;4.38;;;;;;;;;;5000468;28;20243;-86
2023/08/16 12:19:50;;;;;;;4.60;4.30;;;;;;;;;;4989379;28;20221;-86
2023/08/16 12:22:18;;;;;;;4.13;3.90;;;;;;;;;;4988762;28;20784;-86
2023/08/16 12:24:44;;;;;;;4.45;4.15;;;;;;;;;;4991422;28;20218;-86
2023/08/16 12:27:16;;;;;;;4.18;3.75;;;;;;;;;;4986601;28;20754;-86
2023/08/16 12:29:45;;;;;;;4.28;4.00;;;;;;;;;;4990007;28;20312;-86
2023/08/16 12:32:12;;;;;;;5.32;4.35;;;;;;;;;;4976619;28;20221;-87
2023/08/16 12:34:41;;;;;;;3.83;3.53;;;;;;;;;;4990378;28;20515;-86
2023/08/16 12:37:14;;;;;;;4.47;4.18;;;;;;;;;;4986644;28;20234;-86
2023/08/16 12:39:44;;;;;;;4.55;4.15;;;;;;;;;;4990243;28;20319;-87
2023/08/16 12:42:13;;;;;;;4.63;4.30;;;;;;;;;;4989401;28;20228;-85
2023/08/16 12:44:44;;;;;;;4.53;4.15;;;;;;;;;;4990164;28;20652;-85
2023/08/16 12:47:12;;;;;;;4.80;4.43;;;;;;;;;;4987762;28;20233;-86
2023/08/16 12:49:41;;;;;;;4.78;4.32;;;;;;;;;;4990048;28;20232;-86
2023/08/16 12:52:10;;;;;;;4.55;4.20;;;;;;;;;;4984621;28;20241;-85
2023/08/16 12:54:41;;;;;;;4.68;4.32;;;;;;;;;;4989907;28;20590;-88
2023/08/16 12:57:08;;;;;;;3.88;3.67;;;;;;;;;;4988509;28;20225;-86
2023/08/16 12:59:39;;;;;;;5.28;4.75;;;;;;;;;;4990766;28;20223;-86
2023/08/16 13:02:12;;;;;;;4.70;4.43;;;;;;;;;;4987436;28;20617;-86
2023/08/16 13:04:41;;;;;;;6.65;4.82;;;;;;;;;;4990272;28;20233;-85
2023/08/16 13:07:09;;;;;;;5.90;5.40;;;;;;;;;;4989916;28;20276;-87
2023/08/16 13:09:37;;;;;;;4.28;3.97;;;;;;;;;;4989003;28;20228;-85
2023/08/16 13:12:05;;;;;;;5.50;5.00;;;;;;;;;;4990080;28;20224;-86
2023/08/16 13:14:36;;;;;;;4.47;4.18;;;;;;;;;;4988196;28;20237;-87
2023/08/16 13:17:03;;;;;;;4.40;4.07;;;;;;;;;;4993087;28;20705;-86
2023/08/16 13:19:31;;;;;;;4.40;4.20;;;;;;;;;;5005314;28;20254;-87
2023/08/16 13:21:58;;;;;;;5.22;4.30;;;;;;;;;;5009287;28;20236;-88
2023/08/16 13:24:28;;;;;;;6.28;4.85;;;;;;;;;;5009377;28;20228;-87
2023/08/16 13:26:56;;;;;;;4.45;4.05;;;;;;;;;;5010263;28;20334;-86
2023/08/16 13:29:24;;;;;;;4.45;4.25;;;;;;;;;;5009208;28;20243;-85
2023/08/16 13:31:53;;;;;;;5.78;3.97;;;;;;;;;;5008742;28;20270;-85
2023/08/16 13:34:20;;;;;;;6.25;4.18;;;;;;;;;;5004314;28;20236;-87
2023/08/16 13:36:50;;;;;;;6.75;4.43;;;;;;;;;;5009717;28;20607;-87
2023/08/16 13:39:18;;;;;;;5.97;4.32;;;;;;;;;;5006485;28;20229;-85
2023/08/16 13:41:48;;;;;;;4.78;4.43;;;;;;;;;;5012066;28;20260;-86
2023/08/16 13:44:18;;;;;;;5.63;4.80;;;;;;;;;;5020588;28;20229;-86
2023/08/16 13:46:46;;;;;;;5.90;3.70;;;;;;;;;;5031875;28;20213;-86
2023/08/16 13:49:15;;;;;;;4.20;3.90;;;;;;;;;;5030349;28;20324;-87
2023/08/16 13:51:51;;;;;;;5.35;4.95;;;;;;;;;;5031220;28;20225;-85
2023/08/16 13:54:20;;;;;;;4.45;4.03;;;;;;;;;;5006995;28;20319;-86
2023/08/16 13:56:59;;;;;;;4.40;4.10;;;;;;;;;;5010438;28;20229;-87
2023/08/16 13:59:27;;;;;;;4.60;4.20;;;;;;;;;;5008348;28;20250;-87
2023/08/16 14:01:55;;;;;;;4.82;3.97;;;;;;;;;;5009413;28;20233;-85
2023/08/16 14:04:24;;;;;;;3.70;3.50;;;;;;;;;;5007735;28;20243;-86
2023/08/16 14:06:52;;;;;;;10.45;4.20;;;;;;;;;;5009041;28;20242;-85
2023/08/16 14:09:20;;;;;;;4.05;3.88;;;;;;;;;;4995443;28;20785;-86
2023/08/16 14:11:51;;;;;;;4.45;4.10;;;;;;;;;;4981169;28;20236;-84
2023/08/16 14:14:21;;;;;;;4.05;3.78;;;;;;;;;;4993802;28;20225;-87
2023/08/16 14:16:50;;;;;;;5.63;4.57;;;;;;;;;;5012289;28;20238;-85
2023/08/16 14:19:16;;;;;;;6.63;4.65;;;;;;;;;;5010058;28;20303;-82
2023/08/16 14:21:44;;;;;;;4.50;4.10;;;;;;;;;;4996847;28;20229;-85
2023/08/16 14:24:14;;;;;;;6.32;4.53;;;;;;;;;;5006555;28;20225;-85
2023/08/16 14:26:44;;;;;;;4.35;3.95;;;;;;;;;;5007381;28;20247;-85
2023/08/16 14:29:18;;;;;;;5.18;4.05;;;;;;;;;;5007833;28;20261;-84
2023/08/16 14:31:49;;;;;;;4.85;4.53;;;;;;;;;;5004580;28;20235;-84
2023/08/16 14:34:17;;;;;;;7.18;4.75;;;;;;;;;;5007960;28;20718;-85
2023/08/16 14:36:47;;;;;;;4.65;4.25;;;;;;;;;;5005593;28;20240;-85
2023/08/16 14:39:15;;;;;;;4.82;4.43;;;;;;;;;;5007254;28;20229;-87
2023/08/16 14:41:45;;;;;;;5.55;4.32;;;;;;;;;;5005837;28;20235;-86
2023/08/16 14:44:15;;;;;;;4.70;4.30;;;;;;;;;;5009250;28;20235;-86
2023/08/16 14:46:42;;;;;;;5.13;4.75;;;;;;;;;;5006089;28;20264;-85
2023/08/16 14:49:15;;;;;;;4.45;4.18;;;;;;;;;;5007961;28;20240;-87
2023/08/16 14:51:48;;;;;;;4.53;4.15;;;;;;;;;;5005540;28;20251;-85
2023/08/16 14:57:16;;;;;;;4.57;4.18;;;;;;;;;;4979935;28;20248;-85
2023/08/16 15:00:07;;;;;;;5.25;4.75;;;;;;;;;;4988374;28;20221;-86
2023/08/16 15:03:07;;;;;;;3.95;3.60;;;;;;;;;;4983763;28;20662;-85
2023/08/16 15:05:44;;;;;;;4.25;3.90;;;;;;;;;;4986870;28;20677;-85
2023/08/16 15:08:18;;;;;;;4.68;4.38;;;;;;;;;;4996223;28;20220;-85
2023/08/16 15:11:11;;;;;;;4.47;4.18;;;;;;;;;;4990940;28;20266;-86
2023/08/16 15:13:42;;;;;;;4.55;4.25;;;;;;;;;;4994462;28;20237;-86
2023/08/16 15:16:29;;;;;;;4.53;4.25;;;;;;;;;;4987452;28;20264;-86
2023/08/16 15:19:19;;;;;;;4.97;4.57;;;;;;;;;;4979307;28;20248;-88
2023/08/16 15:21:49;;;;;;;6.68;4.93;;;;;;;;;;4984814;28;20226;-88